KQFX

Buron

Buron, South Korea
METAR KQFX 220510Z AUTO 23002KT 9999 FEW220 32/10 A2972 RMK A02 TSNO
Observed Flight Rules
Jun-22 @ 05:10 UTC (25 minutes ago) Visual Flight Rules
Wind Visibility Clouds
230° at 2 knots 10,000+ meters
  • Few at 22,000' AGL
Temperatures Readings
Current 32°C / 90°F
Dewpoint 10°C / 50°F
Humidity 26%
Altimeter 29.72" Hg
Pressure 1006 hPa
METAR KQFX 220510Z AUTO 23002KT 9999 FEW220 32/10 A2972 RMK A02 TSNO
Observed Flight Rules
Jun-22 @ 05:10 UTC
(25 minutes ago)
VFR
Wind Visibility
230° at 2 knots 10,000+ meters
Clouds
  • Few at 22,000' AGL
Temperature Dewpoint
32°C / 90°F 10°C / 50°F
Humidity Altimeter Pressure
26% 29.72" Hg 1006 hPa